Janika — V2YK9 — position and weather

sailwx.info

Track history (hours):
 
Tides and Currents Weather Stations Pressure Air Temp Water Temp Dewpoint Dewpoint Depression Visibility Wind Speed Wind Dir Waves Ship Positions

Janika

Last reported at 2017-Jan-19 14:33 UTC. Time now 2017-Jan-19 15:07 UTC.
Position N 17°35' W 061°49'.

; draft 2.6 m.

Type: Tug. MMSI: 305732000.

Date/timePositionNaut miles runAvg speedWind from/ knotsBaromVisibWave heightAir tempDewpointWater temp
2017-Jan-19 14:33N 17°35' W 061°49'0 0.0
2017-Jan-19 13:33N 17°35' W 061°49'0 0.0
2017-Jan-19 12:33N 17°35' W 061°49'0 0.2
2017-Jan-19 11:33N 17°35' W 061°49'3 3.0
2017-Jan-19 10:33N 17°35' W 061°52'6 5.8
2017-Jan-19 09:33N 17°36' W 061°58'6 5.7
2017-Jan-19 08:33N 17°38' W 062°04'5 5.5
2017-Jan-19 07:33N 17°39' W 062°10'5 5.4
2017-Jan-19 06:33N 17°41' W 062°15'46 5.0
2017-Jan-18 21:17N 17°54' W 063°01'4 4.9
2017-Jan-18 20:31N 17°55' W 063°05'5 4.8
2017-Jan-18 19:28N 17°56' W 063°10'5 4.9
2017-Jan-18 18:31N 17°57' W 063°15'5 4.8
2017-Jan-18 17:32N 17°59' W 063°20'5 4.6
2017-Jan-18 16:33N 17°60' W 063°24'5 4.6
2017-Jan-18 15:33N 18°01' W 063°29'63 4.2
2017-Jan-18 00:33N 18°20' W 064°33'4 4.2
2017-Jan-17 23:33N 18°24' W 064°34'5 4.6
2017-Jan-17 22:33N 18°23' W 064°39'0 0.4
2017-Jan-17 21:33N 18°23' W 064°39'0 0.0
2017-Jan-17 20:30N 18°23' W 064°39'0 0.0
2017-Jan-17 19:33N 18°23' W 064°39'0 0.0
2017-Jan-17 18:33N 18°23' W 064°39'0 0.0
2017-Jan-17 17:33N 18°23' W 064°39'0 0.0
2017-Jan-17 16:19N 18°23' W 064°39'0 0.0
2017-Jan-17 15:30N 18°23' W 064°39'0 0.0
2017-Jan-17 14:32N 18°23' W 064°39'0 0.0
2017-Jan-17 13:33N 18°23' W 064°39'0 0.0
2017-Jan-17 12:32N 18°23' W 064°39'0 0.0
2017-Jan-17 11:33N 18°23' W 064°39'0 0.0
2017-Jan-17 10:33N 18°23' W 064°39'0 0.0
2017-Jan-17 09:33N 18°23' W 064°39'0 0.0
2017-Jan-17 08:33N 18°23' W 064°39'0 0.0
2017-Jan-17 07:33N 18°23' W 064°39'0 0.0
2017-Jan-17 06:33N 18°23' W 064°39'0 0.0
2017-Jan-17 05:33N 18°23' W 064°39'0 0.0
2017-Jan-17 04:32N 18°23' W 064°39'0 0.0
2017-Jan-17 03:33N 18°23' W 064°39'0 0.0
2017-Jan-17 02:33N 18°23' W 064°39'0 0.0
2017-Jan-17 01:33N 18°23' W 064°39'0 0.0
2017-Jan-17 00:32N 18°23' W 064°39'0 0.0
2017-Jan-16 23:33N 18°23' W 064°39'0 0.0
2017-Jan-16 22:33N 18°23' W 064°39'0 0.0
2017-Jan-16 21:33N 18°23' W 064°39'0 0.0
2017-Jan-16 20:33N 18°23' W 064°39'0 0.0
2017-Jan-16 19:33N 18°23' W 064°39'0 0.0
2017-Jan-16 18:33N 18°23' W 064°39'0 0.0
2017-Jan-16 17:33N 18°23' W 064°39'0 0.0
2017-Jan-16 16:31N 18°23' W 064°39'0 0.0
2017-Jan-16 15:22N 18°23' W 064°39'0 0.0
2017-Jan-16 14:32N 18°23' W 064°39'0 0.0
2017-Jan-16 13:33N 18°23' W 064°39'0 0.0
2017-Jan-16 12:33N 18°23' W 064°39'0 0.0
2017-Jan-16 11:32N 18°23' W 064°39'0 0.0
2017-Jan-16 10:33N 18°23' W 064°39'0 0.0
2017-Jan-16 09:33N 18°23' W 064°39'0 0.0
2017-Jan-16 08:33N 18°23' W 064°39'0 0.0
2017-Jan-16 07:33N 18°23' W 064°39'0 0.0
2017-Jan-16 06:33N 18°23' W 064°39'0 0.0
2017-Jan-16 05:33N 18°23' W 064°39'0 0.0
2017-Jan-16 04:33N 18°23' W 064°39'0 0.0
2017-Jan-16 03:33N 18°23' W 064°39'0 0.0
2017-Jan-16 02:33N 18°23' W 064°39'0 0.0
2017-Jan-16 01:33N 18°23' W 064°39'0 0.0
2017-Jan-16 00:33N 18°23' W 064°39'0 0.0
2017-Jan-15 23:33N 18°23' W 064°39'0 0.0
2017-Jan-15 22:33N 18°23' W 064°39'0 0.0
2017-Jan-15 21:33N 18°23' W 064°39'0 0.0
2017-Jan-15 20:33N 18°23' W 064°39'0 0.0
2017-Jan-15 19:33N 18°23' W 064°39'0 0.0
2017-Jan-15 18:33N 18°23' W 064°39'0 0.0
2017-Jan-15 17:33N 18°23' W 064°39'0 0.0
2017-Jan-15 16:32N 18°23' W 064°39'0 0.0
2017-Jan-15 15:33N 18°23' W 064°39'0 0.0
2017-Jan-15 14:27N 18°23' W 064°39'0 0.0
2017-Jan-15 13:29N 18°23' W 064°39'1 1.0
2017-Jan-15 12:33N 18°23' W 064°39'1 1.2
2017-Jan-15 11:33N 18°23' W 064°38'1 1.4
2017-Jan-15 10:33N 18°24' W 064°37'0 0.3
2017-Jan-15 09:33N 18°24' W 064°36'1 1.5
2017-Jan-15 08:33N 18°26' W 064°37'0 0.0
2017-Jan-15 07:33N 18°26' W 064°37'0 0.0
2017-Jan-15 06:32N 18°26' W 064°37'0 0.0
2017-Jan-15 05:33N 18°26' W 064°37'0 0.0
2017-Jan-15 04:33N 18°26' W 064°37'0 0.0
2017-Jan-15 03:24N 18°26' W 064°37'0 0.0
2017-Jan-15 02:30N 18°26' W 064°37'0 0.0
2017-Jan-15 00:15N 18°26' W 064°37'0 0.0
2017-Jan-14 23:29N 18°26' W 064°37'0 0.0
2017-Jan-14 22:27N 18°26' W 064°37'0 0.0
2017-Jan-14 13:09N 18°26' W 064°37'0 0.0
2017-Jan-14 12:24N 18°26' W 064°37'0 0.0
2017-Jan-14 11:32N 18°26' W 064°37'0 0.0
2017-Jan-14 10:33N 18°26' W 064°37'0 0.0
2017-Jan-14 09:33N 18°26' W 064°37'0 0.0
2017-Jan-14 08:33N 18°26' W 064°37'0 0.0
2017-Jan-14 07:33N 18°26' W 064°37'0 0.0
2017-Jan-14 06:33N 18°26' W 064°37'0 0.0
2017-Jan-14 05:33N 18°26' W 064°37'0 0.0
2017-Jan-14 04:33N 18°26' W 064°37'0 0.0
2017-Jan-14 03:33N 18°26' W 064°37'0 0.0
2017-Jan-13 23:32N 18°26' W 064°37'0 0.0
2017-Jan-13 22:32N 18°26' W 064°37'0 0.0
2017-Jan-13 21:30N 18°26' W 064°37'0 0.0
2017-Jan-13 19:20N 18°26' W 064°37'0 0.0
2017-Jan-13 18:14N 18°26' W 064°37'0 0.0
2017-Jan-13 17:33N 18°26' W 064°37'2 0.5
2017-Jan-13 14:33N 18°24' W 064°36'2 2.5
2017-Jan-13 13:33N 18°24' W 064°33'5 4.9
2017-Jan-13 12:30N 18°24' W 064°28'154 4.1
2017-Jan-11 23:19N 16°49' W 062°21'4 4.7
2017-Jan-11 22:33N 16°46' W 062°18'5 4.5
2017-Jan-11 21:33N 16°43' W 062°15'1 0.5
2017-Jan-11 20:05N 16°43' W 062°14'4 7.7
2017-Jan-11 19:33N 16°47' W 062°14'2 1.7
2017-Jan-11 18:33N 16°48' W 062°13'3 3.2
2017-Jan-11 17:33N 16°45' W 062°14'3 2.8
2017-Jan-11 16:33N 16°43' W 062°14'1 0.1
2017-Jan-11 09:31N 16°43' W 062°15'4 4.4
2017-Jan-11 08:33N 16°46' W 062°18'75 5.2
2017-Jan-10 18:16N 17°48' W 063°03'4 5.7
2017-Jan-10 17:31N 17°52' W 063°04'6 5.7
2017-Jan-10 16:23N 17°58' W 063°07'5 5.9
2017-Jan-10 15:30N 18°02' W 063°10'5 3.6
2017-Jan-10 14:12N 18°05' W 063°05'0 0.4
2017-Jan-10 13:26N 18°05' W 063°05'0 0.0
2017-Jan-10 12:12N 18°05' W 063°05'0 0.0
2017-Jan-10 11:25N 18°05' W 063°05'0 0.0
2017-Jan-10 09:26N 18°05' W 063°05'0 0.0
2017-Jan-10 08:26N 18°05' W 063°05'0 0.0
2017-Jan-10 07:30N 18°05' W 063°05'0 0.0
2017-Jan-10 06:31N 18°05' W 063°05'0 0.0
2017-Jan-10 05:30N 18°05' W 063°05'0 0.0
2017-Jan-10 04:30N 18°05' W 063°05'0 0.0
2017-Jan-10 03:24N 18°05' W 063°05'0 0.0
2017-Jan-10 01:29N 18°05' W 063°05'0 0.0
2017-Jan-10 00:32N 18°05' W 063°05'0 0.0
2017-Jan-09 23:26N 18°05' W 063°05'0 0.0
2017-Jan-09 22:17N 18°05' W 063°05'0 0.0
2017-Jan-09 21:31N 18°05' W 063°05'0 0.0
2017-Jan-09 20:27N 18°05' W 063°05'0 0.0
2017-Jan-09 19:27N 18°05' W 063°05'0 0.0
2017-Jan-09 18:33N 18°05' W 063°05'0 0.0
2017-Jan-09 17:32N 18°05' W 063°05'0 0.1
2017-Jan-09 16:22N 18°05' W 063°05'  
Track history (hours):
 
Tides and Currents Weather Stations Pressure Air Temp Water Temp Dewpoint Dewpoint Depression Visibility Wind Speed Wind Dir Waves Ship Positions

Janika

Last reported at 2017-Jan-19 14:33 UTC. Time now 2017-Jan-19 15:07 UTC.
Position N 17°35' W 061°49'.

; draft 2.6 m.

Type: Tug. MMSI: 305732000.

Date/timePositionNaut miles runAvg speedWind from/ knotsBaromVisibWave heightAir tempDewpointWater temp
2017-Jan-19 14:33N 17°35' W 061°49'0 0.0
2017-Jan-19 13:33N 17°35' W 061°49'0 0.0
2017-Jan-19 12:33N 17°35' W 061°49'0 0.2
2017-Jan-19 11:33N 17°35' W 061°49'3 3.0
2017-Jan-19 10:33N 17°35' W 061°52'6 5.8
2017-Jan-19 09:33N 17°36' W 061°58'6 5.7
2017-Jan-19 08:33N 17°38' W 062°04'5 5.5
2017-Jan-19 07:33N 17°39' W 062°10'5 5.4
2017-Jan-19 06:33N 17°41' W 062°15'46 5.0
2017-Jan-18 21:17N 17°54' W 063°01'4 4.9
2017-Jan-18 20:31N 17°55' W 063°05'5 4.8
2017-Jan-18 19:28N 17°56' W 063°10'5 4.9
2017-Jan-18 18:31N 17°57' W 063°15'5 4.8
2017-Jan-18 17:32N 17°59' W 063°20'5 4.6
2017-Jan-18 16:33N 17°60' W 063°24'5 4.6
2017-Jan-18 15:33N 18°01' W 063°29'63 4.2
2017-Jan-18 00:33N 18°20' W 064°33'4 4.2
2017-Jan-17 23:33N 18°24' W 064°34'5 4.6
2017-Jan-17 22:33N 18°23' W 064°39'0 0.4
2017-Jan-17 21:33N 18°23' W 064°39'0 0.0
2017-Jan-17 20:30N 18°23' W 064°39'0 0.0
2017-Jan-17 19:33N 18°23' W 064°39'0 0.0
2017-Jan-17 18:33N 18°23' W 064°39'0 0.0
2017-Jan-17 17:33N 18°23' W 064°39'0 0.0
2017-Jan-17 16:19N 18°23' W 064°39'0 0.0
2017-Jan-17 15:30N 18°23' W 064°39'0 0.0
2017-Jan-17 14:32N 18°23' W 064°39'0 0.0
2017-Jan-17 13:33N 18°23' W 064°39'0 0.0
2017-Jan-17 12:32N 18°23' W 064°39'0 0.0
2017-Jan-17 11:33N 18°23' W 064°39'0 0.0
2017-Jan-17 10:33N 18°23' W 064°39'0 0.0
2017-Jan-17 09:33N 18°23' W 064°39'0 0.0
2017-Jan-17 08:33N 18°23' W 064°39'0 0.0
2017-Jan-17 07:33N 18°23' W 064°39'0 0.0
2017-Jan-17 06:33N 18°23' W 064°39'0 0.0
2017-Jan-17 05:33N 18°23' W 064°39'0 0.0
2017-Jan-17 04:32N 18°23' W 064°39'0 0.0
2017-Jan-17 03:33N 18°23' W 064°39'0 0.0
2017-Jan-17 02:33N 18°23' W 064°39'0 0.0
2017-Jan-17 01:33N 18°23' W 064°39'0 0.0
2017-Jan-17 00:32N 18°23' W 064°39'0 0.0
2017-Jan-16 23:33N 18°23' W 064°39'0 0.0
2017-Jan-16 22:33N 18°23' W 064°39'0 0.0
2017-Jan-16 21:33N 18°23' W 064°39'0 0.0
2017-Jan-16 20:33N 18°23' W 064°39'0 0.0
2017-Jan-16 19:33N 18°23' W 064°39'0 0.0
2017-Jan-16 18:33N 18°23' W 064°39'0 0.0
2017-Jan-16 17:33N 18°23' W 064°39'0 0.0
2017-Jan-16 16:31N 18°23' W 064°39'0 0.0
2017-Jan-16 15:22N 18°23' W 064°39'0 0.0
2017-Jan-16 14:32N 18°23' W 064°39'0 0.0
2017-Jan-16 13:33N 18°23' W 064°39'0 0.0
2017-Jan-16 12:33N 18°23' W 064°39'0 0.0
2017-Jan-16 11:32N 18°23' W 064°39'0 0.0
2017-Jan-16 10:33N 18°23' W 064°39'0 0.0
2017-Jan-16 09:33N 18°23' W 064°39'0 0.0
2017-Jan-16 08:33N 18°23' W 064°39'0 0.0
2017-Jan-16 07:33N 18°23' W 064°39'0 0.0
2017-Jan-16 06:33N 18°23' W 064°39'0 0.0
2017-Jan-16 05:33N 18°23' W 064°39'0 0.0
2017-Jan-16 04:33N 18°23' W 064°39'0 0.0
2017-Jan-16 03:33N 18°23' W 064°39'0 0.0
2017-Jan-16 02:33N 18°23' W 064°39'0 0.0
2017-Jan-16 01:33N 18°23' W 064°39'0 0.0
2017-Jan-16 00:33N 18°23' W 064°39'0 0.0
2017-Jan-15 23:33N 18°23' W 064°39'0 0.0
2017-Jan-15 22:33N 18°23' W 064°39'0 0.0
2017-Jan-15 21:33N 18°23' W 064°39'0 0.0
2017-Jan-15 20:33N 18°23' W 064°39'0 0.0
2017-Jan-15 19:33N 18°23' W 064°39'0 0.0
2017-Jan-15 18:33N 18°23' W 064°39'0 0.0
2017-Jan-15 17:33N 18°23' W 064°39'0 0.0
2017-Jan-15 16:32N 18°23' W 064°39'0 0.0
2017-Jan-15 15:33N 18°23' W 064°39'0 0.0
2017-Jan-15 14:27N 18°23' W 064°39'0 0.0
2017-Jan-15 13:29N 18°23' W 064°39'1 1.0
2017-Jan-15 12:33N 18°23' W 064°39'1 1.2
2017-Jan-15 11:33N 18°23' W 064°38'1 1.4
2017-Jan-15 10:33N 18°24' W 064°37'0 0.3
2017-Jan-15 09:33N 18°24' W 064°36'1 1.5
2017-Jan-15 08:33N 18°26' W 064°37'0 0.0
2017-Jan-15 07:33N 18°26' W 064°37'0 0.0
2017-Jan-15 06:32N 18°26' W 064°37'0 0.0
2017-Jan-15 05:33N 18°26' W 064°37'0 0.0
2017-Jan-15 04:33N 18°26' W 064°37'0 0.0
2017-Jan-15 03:24N 18°26' W 064°37'0 0.0
2017-Jan-15 02:30N 18°26' W 064°37'0 0.0
2017-Jan-15 00:15N 18°26' W 064°37'0 0.0
2017-Jan-14 23:29N 18°26' W 064°37'0 0.0
2017-Jan-14 22:27N 18°26' W 064°37'0 0.0
2017-Jan-14 13:09N 18°26' W 064°37'0 0.0
2017-Jan-14 12:24N 18°26' W 064°37'0 0.0
2017-Jan-14 11:32N 18°26' W 064°37'0 0.0
2017-Jan-14 10:33N 18°26' W 064°37'0 0.0
2017-Jan-14 09:33N 18°26' W 064°37'0 0.0
2017-Jan-14 08:33N 18°26' W 064°37'0 0.0
2017-Jan-14 07:33N 18°26' W 064°37'0 0.0
2017-Jan-14 06:33N 18°26' W 064°37'0 0.0
2017-Jan-14 05:33N 18°26' W 064°37'0 0.0
2017-Jan-14 04:33N 18°26' W 064°37'0 0.0
2017-Jan-14 03:33N 18°26' W 064°37'0 0.0
2017-Jan-13 23:32N 18°26' W 064°37'0 0.0
2017-Jan-13 22:32N 18°26' W 064°37'0 0.0
2017-Jan-13 21:30N 18°26' W 064°37'0 0.0
2017-Jan-13 19:20N 18°26' W 064°37'0 0.0
2017-Jan-13 18:14N 18°26' W 064°37'0 0.0
2017-Jan-13 17:33N 18°26' W 064°37'2 0.5
2017-Jan-13 14:33N 18°24' W 064°36'2 2.5
2017-Jan-13 13:33N 18°24' W 064°33'5 4.9
2017-Jan-13 12:30N 18°24' W 064°28'154 4.1
2017-Jan-11 23:19N 16°49' W 062°21'4 4.7
2017-Jan-11 22:33N 16°46' W 062°18'5 4.5
2017-Jan-11 21:33N 16°43' W 062°15'1 0.5
2017-Jan-11 20:05N 16°43' W 062°14'4 7.7
2017-Jan-11 19:33N 16°47' W 062°14'2 1.7
2017-Jan-11 18:33N 16°48' W 062°13'3 3.2
2017-Jan-11 17:33N 16°45' W 062°14'3 2.8
2017-Jan-11 16:33N 16°43' W 062°14'1 0.1
2017-Jan-11 09:31N 16°43' W 062°15'4 4.4
2017-Jan-11 08:33N 16°46' W 062°18'75 5.2
2017-Jan-10 18:16N 17°48' W 063°03'4 5.7
2017-Jan-10 17:31N 17°52' W 063°04'6 5.7
2017-Jan-10 16:23N 17°58' W 063°07'5 5.9
2017-Jan-10 15:30N 18°02' W 063°10'5 3.6
2017-Jan-10 14:12N 18°05' W 063°05'0 0.4
2017-Jan-10 13:26N 18°05' W 063°05'0 0.0
2017-Jan-10 12:12N 18°05' W 063°05'0 0.0
2017-Jan-10 11:25N 18°05' W 063°05'0 0.0
2017-Jan-10 09:26N 18°05' W 063°05'0 0.0
2017-Jan-10 08:26N 18°05' W 063°05'0 0.0
2017-Jan-10 07:30N 18°05' W 063°05'0 0.0
2017-Jan-10 06:31N 18°05' W 063°05'0 0.0
2017-Jan-10 05:30N 18°05' W 063°05'0 0.0
2017-Jan-10 04:30N 18°05' W 063°05'0 0.0
2017-Jan-10 03:24N 18°05' W 063°05'0 0.0
2017-Jan-10 01:29N 18°05' W 063°05'0 0.0
2017-Jan-10 00:32N 18°05' W 063°05'0 0.0
2017-Jan-09 23:26N 18°05' W 063°05'0 0.0
2017-Jan-09 22:17N 18°05' W 063°05'0 0.0
2017-Jan-09 21:31N 18°05' W 063°05'0 0.0
2017-Jan-09 20:27N 18°05' W 063°05'0 0.0
2017-Jan-09 19:27N 18°05' W 063°05'0 0.0
2017-Jan-09 18:33N 18°05' W 063°05'0 0.0
2017-Jan-09 17:32N 18°05' W 063°05'0 0.1
2017-Jan-09 16:22N 18°05' W 063°05'  

Dump ship's entire track history